Time;durP1;ratioP1;P1;durP2;ratioP2;P2;SDS_P1;SDS_P2;PMS_P1;PMS_P2;Temp;Humidity;BMP_temperature;BMP_pressure;BME280_temperature;BME280_humidity;BME280_pressure;Samples;Min_cycle;Max_cycle;Signal;HPM_P1;HPM_P2
2023/12/09 00:00:00;;;;;;;35.10;19.35;;;;;;;4.28;100.00;100515.56;6072756;23;20034;-81
2023/12/09 00:02:30;;;;;;;37.28;16.20;;;;;;;4.29;100.00;100511.28;6098382;23;20357;-80
2023/12/09 00:05:00;;;;;;;34.65;17.20;;;;;;;4.31;100.00;100514.75;6109959;23;20806;-82
2023/12/09 00:07:26;;;;;;;33.97;17.13;;;;;;;4.33;100.00;100518.25;6130823;23;20032;-80
2023/12/09 00:09:53;;;;;;;41.58;18.08;;;;;;;4.37;100.00;100511.38;6127895;23;20698;-80
2023/12/09 00:12:23;;;;;;;38.45;18.73;;;;;;;4.39;100.00;100514.84;6104920;23;20045;-81
2023/12/09 00:14:52;;;;;;;39.47;17.83;;;;;;;4.40;100.00;100519.19;6102890;23;20064;-81
2023/12/09 00:17:22;;;;;;;37.97;17.50;;;;;;;4.42;100.00;100518.38;6129263;23;20026;-81
2023/12/09 00:19:49;;;;;;;34.35;16.40;;;;;;;4.43;100.00;100517.53;6151462;23;20041;-80
2023/12/09 00:22:16;;;;;;;30.95;17.08;;;;;;;4.47;100.00;100518.41;6106626;23;20022;-79
2023/12/09 00:24:48;;;;;;;36.38;18.33;;;;;;;4.48;100.00;100517.56;6108892;23;20021;-82
2023/12/09 00:27:15;;;;;;;41.50;18.50;;;;;;;4.50;100.00;100525.38;6108572;23;20032;-84
2023/12/09 00:29:46;;;;;;;34.67;19.13;;;;;;;4.48;100.00;100514.97;6129649;23;20025;-80
2023/12/09 00:32:14;;;;;;;33.40;16.25;;;;;;;4.52;100.00;100526.28;6107710;23;20025;-79
2023/12/09 00:34:43;;;;;;;40.40;16.77;;;;;;;4.46;100.00;100519.28;6130997;23;20082;-83
2023/12/09 00:37:10;;;;;;;34.40;16.67;;;;;;;4.51;100.00;100517.63;6130734;23;20117;-81
2023/12/09 00:39:39;;;;;;;39.13;17.30;;;;;;;4.53;100.00;100522.84;6130925;23;20077;-81
2023/12/09 00:42:06;;;;;;;32.50;16.73;;;;;;;4.49;100.00;100516.72;6132487;23;20028;-79
2023/12/09 00:44:33;;;;;;;37.15;16.92;;;;;;;4.51;100.00;100520.22;6109150;23;20022;-82
2023/12/09 00:46:59;;;;;;;29.60;16.27;;;;;;;4.51;100.00;100524.53;6108285;23;20037;-81
2023/12/09 00:49:26;;;;;;;29.23;14.23;;;;;;;4.51;100.00;100509.88;6130426;23;20021;-83
2023/12/09 00:51:54;;;;;;;34.70;16.23;;;;;;;4.45;100.00;100507.19;6127579;23;20116;-81
2023/12/09 00:54:21;;;;;;;35.90;16.13;;;;;;;4.44;100.00;100508.03;6128982;23;20040;-81
2023/12/09 00:56:48;;;;;;;29.33;14.68;;;;;;;4.43;100.00;100506.28;6105885;23;20033;-80
2023/12/09 00:59:14;;;;;;;26.58;15.45;;;;;;;4.43;100.00;100514.06;6101895;23;20037;-79
2023/12/09 01:01:50;;;;;;;28.15;15.75;;;;;;;4.40;100.00;100524.38;6105389;23;20459;-80
2023/12/09 01:04:18;;;;;;;28.58;13.82;;;;;;;4.33;100.00;100520.84;6132700;23;20048;-79
2023/12/09 01:06:47;;;;;;;26.92;14.40;;;;;;;4.24;100.00;100521.56;6108268;23;20021;-79
2023/12/09 01:09:14;;;;;;;28.98;13.27;;;;;;;4.09;100.00;100514.44;6107259;23;20036;-79
2023/12/09 01:11:43;;;;;;;28.13;14.88;;;;;;;4.08;100.00;100517.88;6130866;23;20025;-83
2023/12/09 01:14:28;;;;;;;25.27;13.00;;;;;;;4.01;100.00;100512.59;6133685;23;20043;-79
2023/12/09 01:16:55;;;;;;;27.45;14.48;;;;;;;4.04;100.00;100516.09;6106819;23;20081;-79
2023/12/09 01:19:23;;;;;;;29.75;15.10;;;;;;;4.05;100.00;100515.22;6129527;23;20009;-80
2023/12/09 01:21:53;;;;;;;25.85;14.60;;;;;;;4.09;100.00;100513.56;6107224;23;20017;-80
2023/12/09 01:24:22;;;;;;;24.90;15.00;;;;;;;4.14;100.00;100523.13;6109984;23;20081;-80
2023/12/09 01:26:49;;;;;;;28.58;14.00;;;;;;;4.17;100.00;100521.44;6133107;23;20029;-80
2023/12/09 01:29:17;;;;;;;29.80;16.10;;;;;;;4.17;100.00;100522.31;6130936;23;20026;-78
2023/12/09 01:31:44;;;;;;;34.65;16.25;;;;;;;4.13;100.00;100510.16;6132343;23;20025;-81
2023/12/09 01:34:11;;;;;;;31.75;15.13;;;;;;;4.13;100.00;100518.81;6157730;23;20021;-80
2023/12/09 01:36:38;;;;;;;24.83;13.38;;;;;;;4.12;100.00;100522.25;6110188;23;20026;-82
2023/12/09 01:39:05;;;;;;;31.90;15.75;;;;;;;4.01;100.00;100520.34;6130902;23;20096;-79
2023/12/09 01:41:34;;;;;;;26.50;15.63;;;;;;;4.05;100.00;100529.91;6109444;23;20028;-82
2023/12/09 01:44:00;;;;;;;25.13;15.73;;;;;;;4.03;100.00;100531.59;6134004;23;20032;-78
2023/12/09 01:46:31;;;;;;;23.88;14.48;;;;;;;4.01;100.00;100533.31;6133457;23;20084;-82
2023/12/09 01:49:00;;;;;;;27.95;14.52;;;;;;;4.09;100.00;100537.75;6104098;23;20032;-82
2023/12/09 01:51:27;;;;;;;25.55;14.40;;;;;;;4.10;100.00;100536.03;6131060;23;20108;-81
2023/12/09 01:53:56;;;;;;;26.60;14.07;;;;;;;4.11;100.00;100532.59;6107578;23;20125;-80
2023/12/09 01:56:23;;;;;;;32.60;14.35;;;;;;;4.08;100.00;100525.66;6132631;23;20036;-81
2023/12/09 01:58:50;;;;;;;24.10;12.88;;;;;;;4.12;100.00;100529.16;6129665;23;20026;-82
2023/12/09 02:01:18;;;;;;;27.15;13.02;;;;;;;4.16;100.00;100532.66;6106020;23;20045;-80
2023/12/09 02:03:44;;;;;;;23.35;12.30;;;;;;;4.18;100.00;100530.97;6133158;23;20092;-81
2023/12/09 02:06:13;;;;;;;24.92;13.93;;;;;;;4.21;100.00;100526.72;6108119;23;20089;-79
2023/12/09 02:08:40;;;;;;;30.83;15.02;;;;;;;4.19;100.00;100528.41;6131791;23;20041;-80
2023/12/09 02:11:45;;;;;;;22.00;12.10;;;;;;;4.23;100.00;100526.72;6133606;23;20017;-80
2023/12/09 02:14:20;;;;;;;24.05;12.63;;;;;;;4.25;100.00;100520.72;6131973;23;20021;-80
2023/12/09 02:17:15;;;;;;;24.50;13.70;;;;;;;4.28;100.00;100519.91;6131172;23;20025;-81
2023/12/09 02:19:45;;;;;;;25.42;12.98;;;;;;;4.28;100.00;100522.50;6108308;23;20053;-82
2023/12/09 02:22:12;;;;;;;26.75;12.98;;;;;;;4.29;100.00;100519.06;6131333;23;20037;-80
2023/12/09 02:24:38;;;;;;;24.88;13.68;;;;;;;4.25;100.00;100509.47;6106740;23;20025;-82
2023/12/09 02:27:14;;;;;;;24.33;11.93;;;;;;;4.28;100.00;100518.16;6105794;23;20383;-81
2023/12/09 02:30:16;;;;;;;22.40;12.88;;;;;;;4.27;100.00;100520.75;6103907;23;20133;-79
2023/12/09 02:32:45;;;;;;;20.80;11.77;;;;;;;4.27;100.00;100516.41;6130797;23;20048;-82
2023/12/09 02:35:17;;;;;;;23.45;12.30;;;;;;;4.24;100.00;100524.16;6109365;23;20048;-80
2023/12/09 02:37:45;;;;;;;24.08;12.27;;;;;;;4.23;100.00;100519.81;6134142;23;20021;-81
2023/12/09 02:40:12;;;;;;;21.60;12.23;;;;;;;4.20;100.00;100518.91;6109843;23;20215;-81
2023/12/09 02:42:39;;;;;;;22.23;12.60;;;;;;;4.16;100.00;100522.28;6108971;23;20018;-79
2023/12/09 02:45:09;;;;;;;21.00;12.18;;;;;;;4.13;100.00;100518.81;6107677;23;20025;-79
2023/12/09 02:47:35;;;;;;;24.23;12.40;;;;;;;4.14;100.00;100519.69;6110367;23;20040;-81
2023/12/09 02:50:02;;;;;;;21.80;11.65;;;;;;;4.09;100.00;100513.56;6109366;23;20025;-80
2023/12/09 02:52:29;;;;;;;20.13;12.00;;;;;;;4.09;100.00;100523.91;6136002;23;20017;-79
2023/12/09 02:54:59;;;;;;;22.63;12.38;;;;;;;4.07;100.00;100516.13;6137046;23;20025;-81
2023/12/09 02:57:25;;;;;;;18.35;10.10;;;;;;;4.11;100.00;100524.81;6134190;23;20021;-80
2023/12/09 02:59:55;;;;;;;22.00;11.43;;;;;;;4.14;100.00;100511.91;6108201;23;20029;-82
2023/12/09 03:02:27;;;;;;;23.02;11.85;;;;;;;4.12;100.00;100501.53;6135329;23;20080;-80
2023/12/09 03:04:57;;;;;;;21.67;12.40;;;;;;;4.03;100.00;100504.00;6114136;23;20147;-80
2023/12/09 03:07:25;;;;;;;17.60;11.10;;;;;;;4.04;100.00;100500.56;6130327;23;20017;-80
2023/12/09 03:09:52;;;;;;;20.98;11.40;;;;;;;4.10;100.00;100503.22;6109961;23;20032;-78
2023/12/09 03:12:19;;;;;;;22.27;11.88;;;;;;;4.04;100.00;100491.91;6133637;23;20021;-81
2023/12/09 03:14:53;;;;;;;20.92;11.45;;;;;;;4.06;100.00;100490.22;6111118;23;20025;-82
2023/12/09 03:17:38;;;;;;;18.80;10.23;;;;;;;4.08;100.00;100494.56;6112860;23;20065;-81
2023/12/09 03:20:17;;;;;;;21.42;11.15;;;;;;;4.04;100.00;100491.91;6132551;23;20021;-81
2023/12/09 03:22:44;;;;;;;18.77;11.57;;;;;;;4.08;100.00;100488.50;6134899;23;20044;-80
2023/12/09 03:25:17;;;;;;;19.57;11.40;;;;;;;4.07;100.00;100489.38;6112211;23;20026;-80
2023/12/09 03:27:43;;;;;;;22.75;10.70;;;;;;;4.08;100.00;100489.38;6109679;23;20099;-81
2023/12/09 03:30:12;;;;;;;18.45;11.00;;;;;;;4.09;100.00;100495.44;6133530;23;20044;-80
2023/12/09 03:32:39;;;;;;;19.75;13.13;;;;;;;4.08;100.00;100484.22;6135538;23;20017;-80
2023/12/09 03:35:12;;;;;;;15.75;10.02;;;;;;;4.12;100.00;100480.81;6111058;23;20494;-79
2023/12/09 03:37:41;;;;;;;20.63;11.23;;;;;;;4.13;100.00;100476.47;6110438;23;20025;-82
2023/12/09 03:40:10;;;;;;;19.15;10.38;;;;;;;4.08;100.00;100468.66;6110015;23;20029;-78
2023/12/09 03:42:39;;;;;;;19.77;10.65;;;;;;;4.07;100.00;100463.47;6135372;23;20355;-80
2023/12/09 03:45:07;;;;;;;19.40;10.63;;;;;;;4.12;100.00;100454.03;6112975;23;20029;-79
2023/12/09 03:47:36;;;;;;;18.98;10.88;;;;;;;4.14;100.00;100458.38;6111578;23;20028;-83
2023/12/09 03:50:03;;;;;;;20.83;9.68;;;;;;;4.12;100.00;100460.09;6107210;23;20121;-82
2023/12/09 03:52:30;;;;;;;15.23;8.45;;;;;;;4.13;100.00;100454.06;6134512;23;20095;-79
2023/12/09 03:54:57;;;;;;;17.27;9.55;;;;;;;4.11;100.00;100452.28;6113837;23;20135;-80
2023/12/09 03:57:26;;;;;;;21.70;9.18;;;;;;;4.09;100.00;100452.28;6112663;23;20040;-81
2023/12/09 03:59:53;;;;;;;14.27;9.57;;;;;;;4.01;100.00;100451.28;6137123;23;20027;-78
2023/12/09 04:02:22;;;;;;;17.42;9.27;;;;;;;3.99;100.00;100450.41;6136357;23;20093;-78
2023/12/09 04:04:51;;;;;;;21.95;10.00;;;;;;;4.02;100.00;100441.81;6131308;23;20022;-81
2023/12/09 04:07:20;;;;;;;19.67;9.77;;;;;;;4.04;100.00;100437.50;6104739;23;20080;-80
2023/12/09 04:09:47;;;;;;;17.92;9.15;;;;;;;4.03;100.00;100443.53;6076190;23;20065;-79
2023/12/09 04:12:16;;;;;;;18.75;10.35;;;;;;;4.09;100.00;100453.97;6106065;23;20022;-80
2023/12/09 04:14:47;;;;;;;18.40;9.10;;;;;;;4.09;100.00;100449.69;6106154;23;20321;-81
2023/12/09 04:17:22;;;;;;;20.23;8.95;;;;;;;4.12;100.00;100448.88;6107658;23;20018;-81
2023/12/09 04:19:52;;;;;;;17.33;8.30;;;;;;;4.14;100.00;100452.31;6109262;23;20022;-80
2023/12/09 04:22:19;;;;;;;14.52;9.15;;;;;;;4.18;100.00;100451.50;6108301;23;20546;-82
2023/12/09 04:24:48;;;;;;;18.80;9.15;;;;;;;4.18;100.00;100451.50;6129713;23;20002;-81
2023/12/09 04:27:15;;;;;;;13.18;8.02;;;;;;;4.18;100.00;100459.28;6106770;23;20049;-81
2023/12/09 04:29:42;;;;;;;16.77;9.38;;;;;;;4.13;100.00;100458.34;6104253;23;20072;-79
2023/12/09 04:32:10;;;;;;;16.38;9.00;;;;;;;4.07;100.00;100460.88;6102651;23;20025;-83
2023/12/09 04:34:38;;;;;;;16.23;9.20;;;;;;;4.01;100.00;100443.50;6104536;23;20026;-81
2023/12/09 04:37:04;;;;;;;17.02;8.80;;;;;;;3.96;100.00;100442.56;6082648;23;20033;-82
2023/12/09 04:39:33;;;;;;;19.77;8.95;;;;;;;3.84;100.00;100448.44;6130103;23;20032;-83
2023/12/09 04:42:00;;;;;;;18.98;9.10;;;;;;;3.79;100.00;100447.50;6104564;23;20097;-79
2023/12/09 04:44:34;;;;;;;17.85;9.88;;;;;;;3.70;100.00;100437.84;6106383;23;20052;-79
2023/12/09 04:47:07;;;;;;;20.35;10.55;;;;;;;3.62;100.00;100442.06;6106597;23;20026;-81
2023/12/09 04:49:47;;;;;;;15.00;9.68;;;;;;;3.59;100.00;100434.25;6103129;23;20048;-81
2023/12/09 04:52:18;;;;;;;20.85;10.25;;;;;;;3.53;100.00;100435.00;6102839;23;20026;-78
2023/12/09 04:54:45;;;;;;;14.90;9.32;;;;;;;3.50;100.00;100429.78;6105528;23;20025;-80
2023/12/09 04:57:12;;;;;;;17.45;8.88;;;;;;;3.52;100.00;100434.97;6103174;23;20029;-79
2023/12/09 04:59:42;;;;;;;16.80;9.32;;;;;;;3.53;100.00;100429.81;6078963;23;20025;-80
2023/12/09 05:02:09;;;;;;;19.83;10.18;;;;;;;3.57;100.00;100434.22;6080740;23;20235;-79
2023/12/09 05:04:38;;;;;;;19.33;9.98;;;;;;;3.55;100.00;100430.72;6110771;23;20028;-82
2023/12/09 05:07:05;;;;;;;16.80;9.25;;;;;;;3.57;100.00;100429.06;6156823;23;20025;-82
2023/12/09 05:09:37;;;;;;;17.95;10.50;;;;;;;3.63;100.00;100438.63;6106892;23;20025;-81
2023/12/09 05:12:07;;;;;;;16.33;8.95;;;;;;;3.64;100.00;100430.03;6125335;23;20029;-79
2023/12/09 05:14:45;;;;;;;17.08;10.02;;;;;;;3.66;100.00;100438.66;6138119;23;20018;-82
2023/12/09 05:17:12;;;;;;;14.68;9.52;;;;;;;3.67;100.00;100435.22;6110958;23;20124;-82
2023/12/09 05:19:39;;;;;;;15.95;8.07;;;;;;;3.73;100.00;100435.34;6108997;23;20057;-82
2023/12/09 05:22:06;;;;;;;16.27;8.68;;;;;;;3.79;100.00;100431.97;6109440;23;20025;-80
2023/12/09 05:24:35;;;;;;;15.00;9.25;;;;;;;3.87;100.00;100432.06;6135732;23;20037;-81
2023/12/09 05:27:07;;;;;;;17.20;8.40;;;;;;;3.86;100.00;100433.81;6158719;23;20038;-78
2023/12/09 05:29:36;;;;;;;12.65;7.22;;;;;;;3.88;100.00;100429.50;6136254;23;20021;-80
2023/12/09 05:32:07;;;;;;;13.23;8.13;;;;;;;3.97;100.00;100429.63;6110543;23;20021;-81
2023/12/09 05:34:36;;;;;;;13.35;8.00;;;;;;;4.04;100.00;100429.72;6135999;23;20093;-82
2023/12/09 05:37:03;;;;;;;19.60;8.30;;;;;;;4.07;100.00;100432.38;6109705;23;20396;-79
2023/12/09 05:39:31;;;;;;;12.43;8.30;;;;;;;4.11;100.00;100421.22;6135834;23;20513;-81
2023/12/09 05:41:59;;;;;;;11.65;8.18;;;;;;;4.12;100.00;100413.44;6134172;23;20025;-80
2023/12/09 05:44:28;;;;;;;13.45;7.15;;;;;;;4.04;100.00;100406.41;6110194;23;20022;-79
2023/12/09 05:46:55;;;;;;;14.50;7.00;;;;;;;3.95;100.00;100415.81;6110159;23;20080;-80
2023/12/09 05:49:24;;;;;;;12.25;7.70;;;;;;;3.86;100.00;100407.91;6108111;23;20022;-81
2023/12/09 05:51:51;;;;;;;18.58;8.23;;;;;;;3.76;100.00;100411.22;6131842;23;20026;-79
2023/12/09 05:54:18;;;;;;;19.55;7.82;;;;;;;3.70;100.00;100409.38;6133440;23;20025;-80
2023/12/09 05:56:49;;;;;;;13.25;7.22;;;;;;;3.64;100.00;100417.06;6134664;23;20060;-80
2023/12/09 05:59:16;;;;;;;18.35;9.75;;;;;;;3.59;100.00;100416.13;6132950;23;20032;-79
2023/12/09 06:01:43;;;;;;;20.08;8.85;;;;;;;3.55;100.00;100414.34;6108234;23;20085;-80
2023/12/09 06:04:12;;;;;;;17.45;7.80;;;;;;;3.53;100.00;100416.88;6110205;23;20076;-80
2023/12/09 06:06:39;;;;;;;15.48;7.85;;;;;;;3.54;100.00;100422.94;6134851;23;20048;-82
2023/12/09 06:09:09;;;;;;;17.63;9.13;;;;;;;3.50;100.00;100410.81;6134127;23;20026;-80
2023/12/09 06:11:39;;;;;;;18.85;8.77;;;;;;;3.50;100.00;100410.81;6113066;23;20100;-80
2023/12/09 06:14:10;;;;;;;17.83;8.02;;;;;;;3.45;100.00;100410.72;6137224;23;20101;-81
2023/12/09 06:16:37;;;;;;;13.73;7.97;;;;;;;3.38;100.00;100412.34;6134323;23;20028;-81
2023/12/09 06:19:03;;;;;;;14.63;9.90;;;;;;;3.37;100.00;100415.78;6112518;23;20049;-79
2023/12/09 06:21:32;;;;;;;12.88;8.40;;;;;;;3.36;100.00;100419.19;6104781;23;20025;-80
2023/12/09 06:23:59;;;;;;;16.33;10.05;;;;;;;3.39;100.00;100415.78;6102404;23;20049;-81
2023/12/09 06:26:28;;;;;;;18.13;8.93;;;;;;;3.38;100.00;100412.34;6126793;23;20104;-81
2023/12/09 06:28:55;;;;;;;15.60;8.40;;;;;;;3.41;100.00;100411.53;6124133;23;20136;-80
2023/12/09 06:31:27;;;;;;;17.35;8.52;;;;;;;3.39;100.00;100408.91;6123228;23;20025;-80
2023/12/09 06:33:56;;;;;;;13.80;7.35;;;;;;;3.45;100.00;100413.31;6103013;23;20128;-80
2023/12/09 06:36:23;;;;;;;15.93;8.07;;;;;;;3.51;100.00;100420.28;6126669;23;20065;-80
2023/12/09 06:38:50;;;;;;;12.07;8.55;;;;;;;3.60;100.00;100410.13;6125284;23;20022;-80
2023/12/09 06:41:19;;;;;;;15.88;8.80;;;;;;;3.63;100.00;100417.91;6100175;23;20025;-79
2023/12/09 06:43:46;;;;;;;18.63;7.53;;;;;;;3.72;100.00;100415.47;6102577;23;20026;-82
2023/12/09 06:46:12;;;;;;;14.27;7.80;;;;;;;3.77;100.00;100415.56;6127105;23;20404;-80
2023/12/09 06:48:42;;;;;;;13.27;8.30;;;;;;;3.78;100.00;100406.91;6127037;23;20025;-79
2023/12/09 06:51:16;;;;;;;13.38;8.70;;;;;;;3.73;100.00;100398.19;6125437;23;20088;-80
2023/12/09 06:53:47;;;;;;;13.63;8.32;;;;;;;3.76;100.00;100398.28;6126360;23;20465;-81
2023/12/09 06:56:24;;;;;;;14.90;8.18;;;;;;;3.72;100.00;100405.09;6102163;23;20810;-80
2023/12/09 06:58:58;;;;;;;16.38;8.75;;;;;;;3.71;100.00;100405.94;6103313;23;20021;-81
2023/12/09 07:01:43;;;;;;;11.45;7.15;;;;;;;3.66;100.00;100396.38;6133732;23;20032;-80
2023/12/09 07:04:12;;;;;;;14.93;8.13;;;;;;;3.66;100.00;100398.97;6114825;23;20072;-81
2023/12/09 07:06:39;;;;;;;13.02;8.15;;;;;;;3.67;100.00;100396.41;6113797;23;20048;-80
2023/12/09 07:09:07;;;;;;;11.60;8.13;;;;;;;3.61;100.00;100393.72;6109243;23;20406;-81
2023/12/09 07:11:36;;;;;;;14.48;6.97;;;;;;;3.66;100.00;100397.25;6134974;23;20041;-81
2023/12/09 07:14:09;;;;;;;17.52;7.35;;;;;;;3.63;100.00;100397.22;6136118;23;20018;-81
2023/12/09 07:16:37;;;;;;;13.98;8.13;;;;;;;3.55;100.00;100391.91;6106159;23;20093;-81
2023/12/09 07:19:06;;;;;;;14.43;9.30;;;;;;;3.54;100.00;100397.06;6135659;23;20026;-79
2023/12/09 07:21:35;;;;;;;12.00;7.75;;;;;;;3.53;100.00;100395.31;6135081;23;20025;-84
2023/12/09 07:24:05;;;;;;;11.75;7.05;;;;;;;3.49;100.00;100396.97;6135053;23;20080;-80
2023/12/09 07:26:38;;;;;;;12.40;7.45;;;;;;;3.47;100.00;100389.19;6135232;23;20045;-82
2023/12/09 07:29:05;;;;;;;12.30;7.10;;;;;;;3.43;100.00;100396.91;6106277;23;20021;-80
2023/12/09 07:31:35;;;;;;;13.13;7.93;;;;;;;3.43;100.00;100396.91;6104403;23;20028;-80
2023/12/09 07:34:05;;;;;;;18.17;7.57;;;;;;;3.42;100.00;100403.78;6131500;23;20014;-81
2023/12/09 07:36:35;;;;;;;15.88;7.85;;;;;;;3.42;100.00;100390.00;6108650;23;20021;-83
2023/12/09 07:39:07;;;;;;;13.98;7.57;;;;;;;3.39;100.00;100384.75;6085341;23;20025;-81
2023/12/09 07:41:36;;;;;;;12.40;7.57;;;;;;;3.31;100.00;100387.22;6137025;23;20017;-81
2023/12/09 07:44:08;;;;;;;11.30;6.80;;;;;;;3.30;100.00;100388.94;6111491;23;20072;-80
2023/12/09 07:46:36;;;;;;;14.25;7.55;;;;;;;3.30;100.00;100385.50;6111554;23;20022;-80
2023/12/09 07:49:03;;;;;;;15.05;8.25;;;;;;;3.24;100.00;100378.47;6129699;23;20025;-81
2023/12/09 07:51:33;;;;;;;12.23;6.97;;;;;;;3.22;100.00;100369.84;6129282;23;20025;-82
2023/12/09 07:54:07;;;;;;;13.82;7.50;;;;;;;3.21;100.00;100370.69;6105762;23;20049;-83
2023/12/09 07:56:35;;;;;;;;;;;;;;;3.21;100.00;100367.22;6114437;23;20021;-83
2023/12/09 07:59:08;;;;;;;14.50;7.95;;;;;;;3.22;100.00;100359.50;6133691;23;19920;-81
2023/12/09 08:01:35;;;;;;;16.10;9.57;;;;;;;3.22;100.00;100356.91;6136162;23;20027;-80
2023/12/09 08:04:02;;;;;;;12.77;7.30;;;;;;;3.23;100.00;100357.75;6107151;23;20084;-79
2023/12/09 08:06:29;;;;;;;15.45;8.40;;;;;;;3.24;100.00;100356.94;6124587;23;20030;-79
2023/12/09 08:08:56;;;;;;;15.43;8.52;;;;;;;3.23;100.00;100361.22;6128288;23;20421;-78
2023/12/09 08:11:23;;;;;;;12.73;7.28;;;;;;;3.25;100.00;100359.53;6128046;23;20041;-79
2023/12/09 08:13:49;;;;;;;13.07;8.40;;;;;;;3.23;100.00;100350.84;6096231;23;20475;-80
2023/12/09 08:16:18;;;;;;;14.02;8.20;;;;;;;3.24;100.00;100360.38;6124787;23;20017;-78
2023/12/09 08:18:46;;;;;;;15.98;7.53;;;;;;;3.25;100.00;100356.09;6120989;23;20085;-81
2023/12/09 08:21:16;;;;;;;13.50;8.75;;;;;;;3.24;100.00;100359.50;6128386;23;20359;-81
2023/12/09 08:23:50;;;;;;;18.92;8.93;;;;;;;3.28;100.00;100361.28;6131089;23;20018;-82
2023/12/09 08:26:18;;;;;;;12.05;8.13;;;;;;;3.28;100.00;100363.88;6109361;23;20025;-80
2023/12/09 08:28:47;;;;;;;12.48;8.52;;;;;;;3.26;100.00;100357.81;6099708;23;20026;-82
2023/12/09 08:31:17;;;;;;;10.15;7.00;;;;;;;3.35;100.00;100364.84;6096878;23;20025;-79
2023/12/09 08:33:46;;;;;;;12.95;7.28;;;;;;;3.37;100.00;100366.63;6121971;23;20059;-79
2023/12/09 08:36:13;;;;;;;15.35;8.25;;;;;;;3.40;100.00;100363.19;6102682;23;20061;-81
2023/12/09 08:38:43;;;;;;;12.35;7.35;;;;;;;3.43;100.00;100373.63;6130711;23;20014;-82
2023/12/09 08:41:10;;;;;;;18.10;8.85;;;;;;;3.41;100.00;100360.63;6106959;23;20022;-79
2023/12/09 08:43:37;;;;;;;15.30;7.68;;;;;;;3.46;100.00;100366.75;6130586;23;20029;-81
2023/12/09 08:46:11;;;;;;;13.13;7.20;;;;;;;3.48;100.00;100365.06;6100327;23;20030;-80
2023/12/09 08:48:39;;;;;;;11.93;7.30;;;;;;;3.53;100.00;100359.09;6126660;23;20085;-80
2023/12/09 08:51:09;;;;;;;12.98;7.38;;;;;;;3.56;100.00;100360.00;6102651;23;20028;-82
2023/12/09 08:53:35;;;;;;;10.20;6.90;;;;;;;3.57;100.00;100351.41;6101335;23;20032;-82
2023/12/09 08:56:02;;;;;;;11.38;6.57;;;;;;;3.61;100.00;100357.47;6099283;23;20028;-79
2023/12/09 08:58:37;;;;;;;12.52;6.80;;;;;;;3.71;100.00;100340.38;6102707;23;20022;-84
2023/12/09 09:01:08;;;;;;;12.48;6.10;;;;;;;3.69;100.00;100339.47;6104717;23;20021;-81
2023/12/09 09:03:35;;;;;;;14.52;6.53;;;;;;;3.72;100.00;100326.59;6131667;23;20022;-80
2023/12/09 09:06:01;;;;;;;17.00;6.63;;;;;;;3.77;100.00;100322.34;6134717;23;20025;-80
2023/12/09 09:08:28;;;;;;;10.93;5.85;;;;;;;3.81;100.00;100329.28;6131720;23;20025;-78
2023/12/09 09:10:55;;;;;;;10.38;5.85;;;;;;;3.85;100.00;100323.31;6133799;23;20033;-80
2023/12/09 09:13:25;;;;;;;7.88;4.97;;;;;;;3.92;100.00;100322.50;6133490;23;20121;-80
2023/12/09 09:15:52;;;;;;;9.60;5.18;;;;;;;4.00;100.00;100321.75;6107914;23;20021;-82
2023/12/09 09:18:20;;;;;;;10.32;4.85;;;;;;;4.04;100.00;100313.16;6103026;23;20053;-83
2023/12/09 09:20:47;;;;;;;10.23;5.55;;;;;;;4.06;100.00;100314.06;6128759;23;20052;-79
2023/12/09 09:23:13;;;;;;;11.65;5.45;;;;;;;4.13;100.00;100321.94;6103980;23;20408;-81
2023/12/09 09:25:40;;;;;;;7.03;4.78;;;;;;;4.16;100.00;100325.41;6128565;23;20053;-80
2023/12/09 09:28:08;;;;;;;11.82;5.25;;;;;;;4.18;100.00;100318.53;6121171;23;20239;-84
2023/12/09 09:30:35;;;;;;;12.20;5.70;;;;;;;4.19;100.00;100321.13;6119844;23;20080;-82
2023/12/09 09:33:02;;;;;;;7.78;4.65;;;;;;;4.24;100.00;100323.78;6118873;23;20032;-81
2023/12/09 09:35:35;;;;;;;7.53;4.82;;;;;;;4.25;100.00;100321.22;6121072;23;20021;-83
2023/12/09 09:38:04;;;;;;;7.85;4.50;;;;;;;4.29;100.00;100311.75;6095902;23;20072;-78
2023/12/09 09:40:30;;;;;;;8.52;4.60;;;;;;;4.31;100.00;100328.16;6120958;23;20100;-80
2023/12/09 09:43:06;;;;;;;9.30;3.90;;;;;;;4.37;100.00;100315.28;6119902;23;20029;-80
2023/12/09 09:45:33;;;;;;;13.73;5.40;;;;;;;4.38;100.00;100313.56;6121255;23;20024;-80
2023/12/09 09:48:05;;;;;;;10.80;5.03;;;;;;;4.41;100.00;100306.69;6095417;23;20029;-78
2023/12/09 09:50:41;;;;;;;11.50;5.80;;;;;;;4.53;100.00;100308.53;6119989;23;20687;-80
2023/12/09 09:53:09;;;;;;;8.27;4.65;;;;;;;4.60;100.00;100304.28;6096947;23;20022;-82
2023/12/09 09:55:36;;;;;;;7.80;4.72;;;;;;;4.75;100.00;100306.16;6122728;23;20024;-79
2023/12/09 09:58:08;;;;;;;8.98;4.30;;;;;;;4.78;100.00;100283.72;6096450;23;20021;-80
2023/12/09 10:00:35;;;;;;;9.73;3.85;;;;;;;4.85;100.00;100276.88;6120017;23;20145;-82
2023/12/09 10:03:02;;;;;;;5.72;4.47;;;;;;;4.97;100.00;100268.31;6094584;23;20021;-78
2023/12/09 10:05:28;;;;;;;9.02;4.25;;;;;;;5.04;100.00;100261.44;6095353;23;20029;-82
2023/12/09 10:07:56;;;;;;;6.65;3.55;;;;;;;5.11;100.00;100248.53;6119506;23;20474;-83
2023/12/09 10:10:23;;;;;;;10.18;4.95;;;;;;;5.00;100.00;100238.94;6096688;23;20104;-79
2023/12/09 10:12:50;;;;;;;10.05;4.57;;;;;;;4.99;100.00;100251.00;6120766;23;20076;-78
2023/12/09 10:15:17;;;;;;;7.20;4.15;;;;;;;4.97;100.00;100245.81;6121069;23;20113;-81
2023/12/09 10:17:43;;;;;;;6.93;4.70;;;;;;;5.07;100.00;100232.91;6097310;23;20097;-78
2023/12/09 10:20:10;;;;;;;8.65;3.58;;;;;;;5.12;100.00;100226.03;6122058;23;20478;-81
2023/12/09 10:22:39;;;;;;;5.50;4.22;;;;;;;5.20;100.00;100234.75;6120952;23;20026;-80
2023/12/09 10:25:09;;;;;;;8.45;4.28;;;;;;;5.20;100.00;100221.78;6125653;23;20018;-81
2023/12/09 10:27:38;;;;;;;16.27;5.25;;;;;;;5.26;100.00;100228.72;6099408;23;20035;-82
2023/12/09 10:30:14;;;;;;;5.10;3.47;;;;;;;5.32;100.00;100215.78;6128273;23;20037;-79
2023/12/09 10:32:54;;;;;;;11.80;4.00;;;;;;;5.44;100.00;100209.78;6124823;23;20089;-78
2023/12/09 10:35:23;;;;;;;11.95;3.88;;;;;;;5.44;100.00;100207.19;6128749;23;20017;-80
2023/12/09 10:37:52;;;;;;;12.25;4.55;;;;;;;5.51;100.00;100210.69;6110119;23;20104;-81
2023/12/09 10:40:20;;;;;;;6.90;4.50;;;;;;;5.44;100.00;100208.03;6101066;23;20022;-79
2023/12/09 10:42:49;;;;;;;4.65;3.45;;;;;;;5.50;100.00;100196.84;6124635;23;20025;-79
2023/12/09 10:45:17;;;;;;;5.68;3.63;;;;;;;5.49;100.00;100196.81;6121781;23;20025;-79
2023/12/09 10:47:43;;;;;;;6.75;3.97;;;;;;;5.72;100.00;100183.94;6095758;23;20141;-79
2023/12/09 10:50:12;;;;;;;3.65;3.22;;;;;;;5.93;100.00;100172.72;6092853;23;20021;-81
2023/12/09 10:52:40;;;;;;;6.90;3.40;;;;;;;6.07;100.00;100167.59;6093045;23;20052;-81
2023/12/09 10:55:07;;;;;;;8.55;4.55;;;;;;;6.09;100.00;100158.94;6119492;23;20021;-80
2023/12/09 10:57:36;;;;;;;6.35;3.20;;;;;;;6.01;100.00;100152.00;6096554;23;20032;-80
2023/12/09 11:00:09;;;;;;;4.55;3.25;;;;;;;5.91;100.00;100140.69;6097011;23;20029;-84
2023/12/09 11:02:39;;;;;;;6.40;3.38;;;;;;;5.85;100.00;100131.13;6121962;23;20026;-80
2023/12/09 11:05:09;;;;;;;5.82;3.08;;;;;;;5.84;100.00;100123.34;6121165;23;20084;-80
2023/12/09 11:07:38;;;;;;;5.78;3.53;;;;;;;5.80;100.00;100123.34;6095037;23;20013;-82
2023/12/09 11:10:06;;;;;;;6.40;2.97;;;;;;;5.81;100.00;100119.00;6096311;23;20903;-82
2023/12/09 11:12:34;;;;;;;5.63;3.00;;;;;;;5.82;100.00;100120.75;6118866;23;20028;-81
2023/12/09 11:15:17;;;;;;;4.20;3.05;;;;;;;5.80;100.00;100106.88;6121711;23;20017;-82
2023/12/09 11:17:48;;;;;;;6.22;2.85;;;;;;;5.79;100.00;100097.38;6144523;23;20033;-81
2023/12/09 11:20:44;;;;;;;6.60;3.38;;;;;;;5.84;100.00;100093.06;6123686;23;20376;-82
2023/12/09 11:23:15;;;;;;;6.32;3.33;;;;;;;5.83;100.00;100075.75;6117701;23;20076;-81
2023/12/09 11:25:44;;;;;;;8.00;2.67;;;;;;;5.87;100.00;100074.88;6072869;23;20021;-81